Terminal Aerodrome Forecast
Issued by NWS Missoula, MT

Home | Current Version | Previous Version | Text Only | Print | Product List | Glossary On
Versions: 1 2 3 4 5 6 7 8 9 10 11 12 13
000
FTUS45 KMSO 041732
TAFGPI
TAF
KGPI 041732Z 0418/0518 15007KT P6SM SKC
     FM050000 01010G15KT P6SM SCT120
     FM050400 03020G30KT P6SM BKN070
     FM051400 03015G22KT P6SM VCSH OVC060=

USA.gov is the U.S. government's official web portal to all federal, state and local government web resources and services.